createdAt,value
2022-08-03T00:02:17.464Z,27.09
2022-08-03T00:04:45.517Z,27.36
2022-08-03T00:07:12.997Z,27.44
2022-08-03T00:09:42.871Z,27.46
2022-08-03T00:12:10.759Z,27.48
2022-08-03T00:14:38.240Z,27.59
2022-08-03T00:17:06.000Z,27.17
2022-08-03T00:19:33.550Z,27.12
2022-08-03T00:22:01.237Z,26.94
2022-08-03T00:24:31.235Z,26.90
2022-08-03T00:26:58.814Z,26.51
2022-08-03T00:29:28.975Z,26.48
2022-08-03T00:32:00.102Z,26.62
2022-08-03T00:34:54.324Z,25.94
2022-08-03T00:37:19.253Z,26.18
2022-08-03T00:39:48.116Z,26.34
2022-08-03T00:42:16.060Z,26.39
2022-08-03T00:44:44.087Z,26.01
2022-08-03T00:47:11.616Z,25.89
2022-08-03T00:49:41.043Z,25.49
2022-08-03T00:52:09.965Z,25.69
2022-08-03T00:54:40.370Z,25.62
2022-08-03T00:57:08.184Z,26.03
2022-08-03T00:59:35.944Z,26.23
2022-08-03T01:02:03.386Z,26.53
2022-08-03T01:04:30.965Z,26.81
2022-08-03T01:07:10.652Z,26.80
2022-08-03T01:09:57.797Z,26.92
2022-08-03T01:12:31.245Z,26.84
2022-08-03T01:14:59.443Z,26.74
2022-08-03T01:17:32.998Z,26.67
2022-08-03T01:20:13.858Z,26.44
2022-08-03T01:22:59.972Z,26.71
2022-08-03T01:25:42.583Z,26.31
2022-08-03T01:28:15.798Z,26.70
2022-08-03T01:30:44.473Z,26.72
2022-08-03T01:33:19.377Z,26.90
2022-08-03T01:35:47.712Z,26.30
2022-08-03T01:38:25.178Z,26.62
2022-08-03T01:40:56.067Z,26.50
2022-08-03T01:44:27.174Z,26.76
2022-08-03T01:46:12.834Z,26.77
2022-08-03T01:48:44.274Z,26.50
2022-08-03T01:51:11.880Z,26.48
2022-08-03T01:53:43.618Z,26.51
2022-08-03T01:56:14.727Z,26.64
2022-08-03T01:58:44.758Z,26.81
2022-08-03T02:01:13.823Z,26.89
2022-08-03T02:03:59.982Z,26.77
2022-08-03T02:07:00.601Z,26.40
2022-08-03T02:09:21.097Z,26.20
2022-08-03T02:11:51.342Z,25.66
2022-08-03T02:14:19.058Z,25.76
2022-08-03T02:16:46.764Z,25.74
2022-08-03T02:19:14.655Z,25.76
2022-08-03T02:21:56.559Z,25.55
2022-08-03T02:24:29.524Z,25.79
2022-08-03T02:26:57.244Z,25.68
2022-08-03T02:29:39.069Z,25.83
2022-08-03T02:32:13.305Z,25.91
2022-08-03T02:34:44.181Z,26.10
2022-08-03T02:37:15.567Z,26.09
2022-08-03T02:39:43.042Z,26.02
2022-08-03T02:42:12.163Z,26.34
2022-08-03T02:44:40.509Z,26.44
2022-08-03T02:47:10.411Z,25.97
2022-08-03T02:49:50.173Z,25.91
2022-08-03T02:52:20.500Z,25.95
2022-08-03T02:54:48.184Z,26.08
2022-08-03T02:57:15.704Z,26.11
2022-08-03T02:59:43.287Z,26.17
2022-08-03T03:02:10.962Z,26.27
2022-08-03T03:04:38.525Z,25.95
2022-08-03T03:07:23.289Z,25.66
2022-08-03T03:09:51.156Z,25.90
2022-08-03T03:12:21.005Z,25.85
2022-08-03T03:14:48.501Z,25.88
2022-08-03T03:17:16.884Z,26.14
2022-08-03T03:19:45.670Z,26.26
2022-08-03T03:22:16.400Z,25.73
2022-08-03T03:24:47.333Z,25.98
2022-08-03T03:27:16.694Z,26.01
2022-08-03T03:29:46.802Z,25.90
2022-08-03T03:32:14.480Z,25.97
2022-08-03T03:34:44.616Z,26.00
2022-08-03T03:37:14.338Z,26.05
2022-08-03T03:39:41.975Z,26.00
2022-08-03T03:42:12.061Z,26.03
2022-08-03T03:44:39.716Z,25.75
2022-08-03T03:47:07.314Z,25.81
2022-08-03T03:49:34.801Z,25.58
2022-08-03T03:52:02.376Z,25.83
2022-08-03T03:54:39.909Z,25.95
2022-08-03T03:57:10.432Z,26.11
2022-08-03T03:59:43.062Z,25.43
2022-08-03T04:02:11.318Z,25.60
2022-08-03T04:04:56.879Z,25.29
2022-08-03T04:07:43.456Z,25.15
2022-08-03T04:10:29.767Z,25.41
2022-08-03T04:12:59.959Z,25.78
2022-08-03T04:15:27.851Z,25.80
2022-08-03T04:17:58.986Z,25.67
2022-08-03T04:20:27.199Z,25.45
2022-08-03T04:22:55.613Z,25.63
2022-08-03T04:25:25.838Z,25.82
2022-08-03T04:28:08.235Z,26.03
2022-08-03T04:30:48.040Z,25.75
2022-08-03T04:33:15.686Z,25.20
2022-08-03T04:36:00.880Z,25.35
2022-08-03T04:38:32.274Z,25.52
2022-08-03T04:40:59.886Z,25.72
2022-08-03T04:43:29.796Z,26.03
2022-08-03T04:45:57.306Z,26.18
2022-08-03T04:48:24.918Z,25.73
2022-08-03T04:50:52.371Z,25.92
2022-08-03T04:53:19.785Z,25.61
2022-08-03T04:55:47.299Z,25.89
2022-08-03T04:58:14.681Z,25.60
2022-08-03T05:00:43.227Z,25.54
2022-08-03T05:03:19.574Z,25.36
2022-08-03T05:05:52.246Z,25.16
2022-08-03T05:08:27.925Z,25.34
2022-08-03T05:10:58.874Z,25.76
2022-08-03T05:13:29.882Z,25.90
2022-08-03T05:15:57.330Z,25.50
2022-08-03T05:18:24.691Z,25.61
2022-08-03T05:20:52.124Z,25.95
2022-08-03T05:23:20.159Z,26.26
2022-08-03T05:25:49.676Z,26.36
2022-08-03T05:28:20.032Z,26.50
2022-08-03T05:30:47.391Z,26.52
2022-08-03T05:33:14.923Z,26.49
2022-08-03T05:35:57.217Z,26.36
2022-08-03T05:38:34.667Z,26.36
2022-08-03T05:41:23.365Z,26.67
2022-08-03T05:43:52.073Z,26.82
2022-08-03T05:46:19.484Z,26.70
2022-08-03T05:48:46.846Z,26.87
2022-08-03T05:51:14.058Z,26.88
2022-08-03T05:53:42.049Z,26.87
2022-08-03T05:56:13.617Z,26.94
2022-08-03T05:58:46.346Z,26.84
2022-08-03T06:01:13.940Z,27.18
2022-08-03T06:03:41.267Z,27.39
2022-08-03T06:06:08.526Z,27.36
2022-08-03T06:08:35.847Z,27.37
2022-08-03T06:11:03.454Z,27.14
2022-08-03T06:13:50.848Z,27.29
2022-08-03T06:16:18.042Z,27.27
2022-08-03T06:18:46.057Z,27.06
2022-08-03T06:21:15.399Z,27.08
2022-08-03T06:23:54.141Z,27.14
2022-08-03T06:26:23.558Z,27.34
2022-08-03T06:28:51.578Z,27.37
2022-08-03T06:31:22.854Z,27.23
2022-08-03T06:34:34.262Z,27.34
2022-08-03T06:36:37.380Z,27.50
2022-08-03T06:39:05.911Z,27.75
2022-08-03T06:41:38.086Z,27.70
2022-08-03T06:44:12.800Z,27.87
2022-08-03T06:46:40.061Z,27.92
2022-08-03T06:49:10.823Z,27.81
2022-08-03T06:52:05.424Z,27.89
2022-08-03T06:54:25.394Z,27.97
2022-08-03T06:56:52.634Z,28.01
2022-08-03T07:00:09.298Z,28.15
2022-08-03T07:02:09.702Z,28.25
2022-08-03T07:04:37.174Z,28.39
2022-08-03T07:07:04.515Z,28.48
2022-08-03T07:09:32.071Z,28.29
2022-08-03T07:12:02.308Z,28.44
2022-08-03T07:14:33.326Z,28.54
2022-08-03T07:17:00.547Z,28.61
2022-08-03T07:19:28.020Z,28.65
2022-08-03T07:21:55.551Z,28.88
2022-08-03T07:24:29.464Z,28.79
2022-08-03T07:26:56.682Z,28.88
2022-08-03T07:29:23.865Z,29.00
2022-08-03T07:31:51.019Z,29.13
2022-08-03T07:34:18.311Z,29.26
2022-08-03T07:36:45.569Z,29.29
2022-08-03T07:39:15.900Z,28.97
2022-08-03T07:41:45.459Z,29.09
2022-08-03T07:44:12.661Z,29.11
2022-08-03T07:46:39.862Z,29.36
2022-08-03T07:49:07.077Z,29.68
2022-08-03T07:51:34.652Z,29.61
2022-08-03T07:54:01.991Z,29.65
2022-08-03T07:56:29.286Z,29.60
2022-08-03T07:58:56.463Z,29.64
2022-08-03T08:01:23.939Z,29.59
2022-08-03T08:03:53.346Z,29.64
2022-08-03T08:06:21.155Z,29.75
2022-08-03T08:08:48.323Z,29.53
2022-08-03T08:11:18.196Z,29.69
2022-08-03T08:13:45.379Z,30.13
2022-08-03T08:16:12.574Z,30.07
2022-08-03T08:18:39.758Z,30.18
2022-08-03T08:21:06.932Z,30.06
2022-08-03T08:23:41.862Z,29.89
2022-08-03T08:26:10.510Z,29.94
2022-08-03T08:28:37.715Z,30.25
2022-08-03T08:31:05.054Z,30.48
2022-08-03T08:33:54.334Z,30.17
2022-08-03T08:36:19.681Z,30.12
2022-08-03T08:38:50.144Z,30.25
2022-08-03T08:41:17.387Z,30.38
2022-08-03T08:43:44.564Z,30.42
2022-08-03T08:46:12.137Z,30.66
2022-08-03T08:48:42.565Z,30.76
2022-08-03T08:51:09.904Z,30.75
2022-08-03T08:53:40.053Z,30.62
2022-08-03T08:56:07.253Z,30.54
2022-08-03T08:58:39.577Z,30.92
2022-08-03T09:01:12.297Z,30.59
2022-08-03T09:03:44.958Z,30.86
2022-08-03T09:06:12.263Z,30.57
2022-08-03T09:08:39.546Z,30.73
2022-08-03T09:11:07.721Z,30.73
2022-08-03T09:13:38.556Z,30.85
2022-08-03T09:16:15.795Z,30.99
2022-08-03T09:18:45.677Z,31.05
2022-08-03T09:21:31.132Z,30.90
2022-08-03T09:24:02.766Z,31.28
2022-08-03T09:26:33.295Z,31.60
2022-08-03T09:29:05.969Z,31.70
2022-08-03T09:31:43.631Z,31.32
2022-08-03T09:34:34.413Z,31.22
2022-08-03T09:37:04.807Z,31.54
2022-08-03T09:39:40.923Z,31.66
2022-08-03T09:42:15.003Z,31.58
2022-08-03T09:44:46.673Z,31.29
2022-08-03T09:47:32.674Z,31.30
2022-08-03T09:50:02.304Z,31.72
2022-08-03T09:52:49.317Z,31.89
2022-08-03T09:56:35.003Z,31.94
2022-08-03T09:58:17.135Z,31.58
2022-08-03T10:00:54.880Z,31.59
2022-08-03T10:03:26.004Z,31.15
2022-08-03T10:05:59.032Z,31.53
2022-08-03T10:08:33.154Z,31.94
2022-08-03T10:11:05.001Z,32.41
2022-08-03T10:13:32.349Z,32.01
2022-08-03T10:16:25.306Z,31.84
2022-08-03T10:18:51.929Z,31.99
2022-08-03T10:21:21.245Z,31.99
2022-08-03T10:23:48.586Z,32.11
2022-08-03T10:26:16.757Z,32.27
2022-08-03T10:28:47.183Z,32.33
2022-08-03T10:31:14.536Z,32.29
2022-08-03T10:33:49.737Z,32.37
2022-08-03T10:36:19.918Z,32.24
2022-08-03T10:38:52.603Z,32.38
2022-08-03T10:41:20.780Z,32.43
2022-08-03T10:43:50.901Z,32.28
2022-08-03T10:46:23.787Z,31.97
2022-08-03T10:48:56.990Z,32.23
2022-08-03T10:51:25.515Z,32.77
2022-08-03T10:53:54.563Z,33.04
2022-08-03T10:56:50.719Z,33.36
2022-08-03T10:59:27.416Z,33.16
2022-08-03T11:01:59.799Z,33.25
2022-08-03T11:04:29.541Z,33.45
2022-08-03T11:07:15.794Z,34.15
2022-08-03T11:09:44.161Z,33.84
2022-08-03T11:12:21.513Z,33.53
2022-08-03T11:14:58.021Z,33.89
2022-08-03T11:17:27.618Z,34.97
2022-08-03T11:19:56.930Z,35.74
2022-08-03T11:22:25.689Z,35.02
2022-08-03T11:24:57.530Z,35.19
2022-08-03T11:27:33.933Z,36.85
2022-08-03T11:30:04.286Z,37.91
2022-08-03T11:32:42.401Z,37.68
2022-08-03T11:35:27.597Z,36.83
2022-08-03T11:38:03.194Z,36.80
2022-08-03T11:40:33.923Z,37.83
2022-08-03T11:43:30.773Z,39.93
2022-08-03T11:45:59.156Z,37.57
2022-08-03T11:48:28.053Z,37.30
2022-08-03T11:50:57.924Z,37.71
2022-08-03T11:53:28.677Z,37.19
2022-08-03T11:55:58.387Z,38.36
2022-08-03T11:59:16.385Z,39.45
2022-08-03T12:01:22.860Z,39.91
2022-08-03T12:03:50.525Z,40.21
2022-08-03T12:06:18.346Z,39.96
2022-08-03T12:08:45.751Z,40.19
2022-08-03T12:11:13.809Z,39.16
2022-08-03T12:14:33.035Z,39.41
2022-08-03T12:16:31.578Z,40.54
2022-08-03T12:18:59.323Z,39.35
2022-08-03T12:21:26.827Z,38.23
2022-08-03T12:24:00.201Z,38.61
2022-08-03T12:26:28.451Z,39.26
2022-08-03T12:28:56.026Z,39.36
2022-08-03T12:31:23.243Z,39.14
2022-08-03T12:33:58.772Z,39.06
2022-08-03T12:36:28.910Z,37.68
2022-08-03T12:38:57.849Z,37.61
2022-08-03T12:41:34.194Z,37.24
2022-08-03T12:44:03.531Z,37.76
2022-08-03T12:46:34.723Z,38.33
2022-08-03T12:49:03.702Z,39.31
2022-08-03T12:51:34.615Z,39.66
2022-08-03T12:54:02.144Z,39.69
2022-08-03T12:56:29.606Z,39.16
2022-08-03T12:58:56.925Z,41.47
2022-08-03T13:01:24.573Z,40.61
2022-08-03T13:03:53.878Z,42.04
2022-08-03T13:06:22.708Z,41.32
2022-08-03T13:08:51.319Z,40.45
2022-08-03T13:11:19.417Z,39.55
2022-08-03T13:13:46.677Z,38.37
2022-08-03T13:16:19.012Z,37.78
2022-08-03T13:18:47.212Z,37.30
2022-08-03T13:21:19.041Z,37.30
2022-08-03T13:23:46.488Z,37.79
2022-08-03T13:26:13.722Z,36.90
2022-08-03T13:28:40.949Z,39.10
2022-08-03T13:31:08.144Z,40.22
2022-08-03T13:33:35.492Z,40.63
2022-08-03T13:36:02.824Z,40.88
2022-08-03T13:38:30.250Z,41.47
2022-08-03T13:40:57.938Z,41.45
2022-08-03T13:43:25.297Z,39.16
2022-08-03T13:45:57.937Z,39.28
2022-08-03T13:48:36.664Z,39.65
2022-08-03T13:51:11.564Z,40.45
2022-08-03T13:53:49.223Z,41.23
2022-08-03T13:56:16.445Z,40.93
2022-08-03T13:58:43.766Z,39.49
2022-08-03T14:01:11.447Z,39.06
2022-08-03T14:03:38.985Z,37.79
2022-08-03T14:06:06.252Z,36.58
2022-08-03T14:08:33.459Z,36.64
2022-08-03T14:11:00.750Z,35.76
2022-08-03T14:13:27.985Z,35.53
2022-08-03T14:15:55.725Z,35.26
2022-08-03T14:18:27.937Z,35.06
2022-08-03T14:21:05.018Z,34.61
2022-08-03T14:23:33.798Z,34.87
2022-08-03T14:26:03.246Z,34.59
2022-08-03T14:28:30.506Z,34.53
2022-08-03T14:30:57.879Z,33.92
2022-08-03T14:33:25.222Z,33.67
2022-08-03T14:35:52.642Z,33.33
2022-08-03T14:38:19.962Z,33.31
2022-08-03T14:40:47.421Z,33.08
2022-08-03T14:43:14.975Z,33.38
2022-08-03T14:45:45.200Z,33.38
2022-08-03T14:50:28.954Z,33.43
2022-08-03T14:50:59.889Z,33.20
2022-08-03T14:53:28.707Z,32.95
2022-08-03T14:55:58.920Z,32.91
2022-08-03T14:58:27.035Z,33.20
2022-08-03T15:00:59.185Z,33.26
2022-08-03T15:03:26.516Z,33.08
2022-08-03T15:05:54.682Z,32.66
2022-08-03T15:08:25.046Z,32.79
2022-08-03T15:10:55.438Z,32.78
2022-08-03T15:13:22.774Z,33.00
2022-08-03T15:15:50.147Z,32.84
2022-08-03T15:18:17.554Z,32.89
2022-08-03T15:21:08.129Z,32.83
2022-08-03T15:23:55.510Z,32.87
2022-08-03T15:26:33.935Z,32.84
2022-08-03T15:29:03.532Z,32.73
2022-08-03T15:31:33.841Z,32.65
2022-08-03T15:34:01.083Z,32.58
2022-08-03T15:36:30.941Z,32.68
2022-08-03T15:38:58.213Z,32.90
2022-08-03T15:41:25.613Z,32.94
2022-08-03T15:43:53.377Z,32.91
2022-08-03T15:46:29.277Z,33.00
2022-08-03T15:48:59.180Z,32.83
2022-08-03T15:51:28.880Z,32.58
2022-08-03T15:53:57.439Z,32.39
2022-08-03T15:56:27.247Z,32.36
2022-08-03T15:59:09.623Z,32.35
2022-08-03T16:01:43.531Z,32.51
2022-08-03T16:04:13.271Z,32.51
2022-08-03T16:06:40.672Z,32.38
2022-08-03T16:09:24.039Z,32.50
2022-08-03T16:11:57.891Z,32.61
2022-08-03T16:14:32.239Z,32.65
2022-08-03T16:17:05.386Z,32.65
2022-08-03T16:19:32.993Z,32.63
2022-08-03T16:22:00.952Z,32.67
2022-08-03T16:24:28.560Z,32.71
2022-08-03T16:26:58.347Z,32.78
2022-08-03T16:29:28.541Z,32.60
2022-08-03T16:31:55.737Z,32.62
2022-08-03T16:34:23.015Z,32.61
2022-08-03T16:36:50.302Z,32.55
2022-08-03T16:39:17.710Z,32.49
2022-08-03T16:41:54.347Z,32.41
2022-08-03T16:44:39.919Z,32.47
2022-08-03T16:47:07.356Z,32.34
2022-08-03T16:49:53.638Z,32.26
2022-08-03T16:52:22.882Z,32.35
2022-08-03T16:54:53.085Z,32.40
2022-08-03T16:57:58.142Z,32.48
2022-08-03T17:00:12.227Z,32.37
2022-08-03T17:03:04.080Z,32.41
2022-08-03T17:05:32.641Z,32.42
2022-08-03T17:08:15.465Z,32.40
2022-08-03T17:10:44.482Z,32.46
2022-08-03T17:13:22.082Z,32.31
2022-08-03T17:16:00.698Z,32.42
2022-08-03T17:18:32.541Z,32.33
2022-08-03T17:21:00.364Z,32.25
2022-08-03T17:23:35.398Z,32.29
2022-08-03T17:26:04.363Z,32.34
2022-08-03T17:28:49.246Z,32.40
2022-08-03T17:31:31.290Z,32.28
2022-08-03T17:34:04.631Z,32.30
2022-08-03T17:37:02.298Z,32.36
2022-08-03T17:39:41.689Z,32.29
2022-08-03T17:42:30.597Z,32.00
2022-08-03T17:44:57.724Z,32.02
2022-08-03T17:47:29.136Z,31.95
2022-08-03T17:50:24.832Z,31.97
2022-08-03T17:53:01.701Z,31.98
2022-08-03T17:55:57.042Z,31.99
2022-08-03T17:58:41.297Z,31.91
2022-08-03T18:02:00.845Z,31.81
2022-08-03T18:04:21.764Z,31.82
2022-08-03T18:06:58.978Z,31.80
2022-08-03T18:10:03.838Z,31.70
2022-08-03T18:12:16.337Z,31.68
2022-08-03T18:14:57.885Z,31.70
2022-08-03T18:17:55.683Z,31.62
2022-08-03T18:20:32.859Z,31.60
2022-08-03T18:23:04.855Z,31.67
2022-08-03T18:25:42.754Z,31.62
2022-08-03T18:28:14.209Z,31.59
2022-08-03T18:30:54.144Z,31.42
2022-08-03T18:34:20.035Z,31.25
2022-08-03T18:36:17.743Z,31.19
2022-08-03T18:38:47.268Z,31.11
2022-08-03T18:41:20.680Z,31.11
2022-08-03T18:44:06.740Z,31.10
2022-08-03T18:46:53.704Z,31.18
2022-08-03T18:49:56.470Z,31.09
2022-08-03T18:52:56.284Z,31.05
2022-08-03T18:56:02.109Z,31.03
2022-08-03T18:58:45.465Z,31.06
2022-08-03T19:02:00.707Z,31.03
2022-08-03T19:04:35.588Z,30.96
2022-08-03T19:07:04.945Z,31.01
2022-08-03T19:09:48.843Z,30.94
2022-08-03T19:12:30.716Z,30.74
2022-08-03T19:15:10.363Z,30.88
2022-08-03T19:17:50.185Z,30.86
2022-08-03T19:20:30.991Z,30.85
2022-08-03T19:22:58.973Z,30.86
2022-08-03T19:25:34.480Z,30.72
2022-08-03T19:28:07.371Z,30.70
2022-08-03T19:30:38.903Z,30.64
2022-08-03T19:33:09.981Z,30.62
2022-08-03T19:35:51.678Z,30.64
2022-08-03T19:38:28.300Z,30.70
2022-08-03T19:41:03.685Z,30.50
2022-08-03T19:43:53.330Z,30.56
2022-08-03T19:46:31.154Z,30.41
2022-08-03T19:49:02.189Z,30.51
2022-08-03T19:52:01.628Z,30.42
2022-08-03T19:54:29.390Z,30.32
2022-08-03T19:57:02.013Z,30.31
2022-08-03T19:59:29.307Z,30.34
2022-08-03T20:01:56.798Z,30.24
2022-08-03T20:04:24.236Z,30.15
2022-08-03T20:06:57.296Z,30.06
2022-08-03T20:09:24.545Z,30.09
2022-08-03T20:11:57.795Z,29.97
2022-08-03T20:14:26.572Z,29.95
2022-08-03T20:16:54.457Z,30.03
2022-08-03T20:19:32.503Z,29.93
2022-08-03T20:22:02.403Z,29.82
2022-08-03T20:24:32.750Z,29.84
2022-08-03T20:27:05.193Z,29.78
2022-08-03T20:30:05.220Z,29.80
2022-08-03T20:32:24.982Z,29.78
2022-08-03T20:34:52.935Z,29.79
2022-08-03T20:37:20.665Z,29.61
2022-08-03T20:39:49.775Z,29.73
2022-08-03T20:42:21.591Z,29.72
2022-08-03T20:45:04.664Z,29.78
2022-08-03T20:47:35.673Z,29.54
2022-08-03T20:50:07.501Z,29.63
2022-08-03T20:52:43.758Z,29.47
2022-08-03T20:55:20.474Z,29.49
2022-08-03T20:58:07.078Z,29.62
2022-08-03T21:00:37.043Z,29.49
2022-08-03T21:03:06.801Z,29.40
2022-08-03T21:05:51.194Z,29.36
2022-08-03T21:08:21.550Z,29.43
2022-08-03T21:10:49.832Z,29.60
2022-08-03T21:13:25.106Z,29.48
2022-08-03T21:16:11.962Z,29.40
2022-08-03T21:18:44.731Z,29.37
2022-08-03T21:21:14.179Z,29.59
2022-08-03T21:23:49.018Z,29.41
2022-08-03T21:26:18.224Z,29.48
2022-08-03T21:28:46.868Z,29.36
2022-08-03T21:31:22.353Z,29.49
2022-08-03T21:33:57.367Z,29.42
2022-08-03T21:36:26.089Z,29.35
2022-08-03T21:38:56.998Z,29.30
2022-08-03T21:41:29.409Z,29.10
2022-08-03T21:43:56.878Z,29.02
2022-08-03T21:46:24.353Z,29.15
2022-08-03T21:48:56.407Z,29.03
2022-08-03T21:51:43.657Z,29.14
2022-08-03T21:54:11.263Z,29.10
2022-08-03T21:56:42.400Z,29.18
2022-08-03T21:59:13.746Z,29.26
2022-08-03T22:01:49.350Z,29.26
2022-08-03T22:04:38.780Z,29.36
2022-08-03T22:07:10.385Z,29.23
2022-08-03T22:09:50.124Z,29.10
2022-08-03T22:12:23.884Z,29.15
2022-08-03T22:15:01.446Z,28.90
2022-08-03T22:17:55.682Z,28.81
2022-08-03T22:20:21.871Z,29.06
2022-08-03T22:22:56.076Z,29.13
2022-08-03T22:25:27.210Z,28.99
2022-08-03T22:27:54.643Z,29.17
2022-08-03T22:30:22.023Z,29.19
2022-08-03T22:32:50.437Z,28.88
2022-08-03T22:35:17.899Z,28.74
2022-08-03T22:37:45.770Z,28.83
2022-08-03T22:40:14.241Z,28.95
2022-08-03T22:42:44.472Z,28.95
2022-08-03T22:46:06.324Z,29.21
2022-08-03T22:48:06.093Z,28.52
2022-08-03T22:50:34.066Z,28.55
2022-08-03T22:53:01.502Z,28.61
2022-08-03T22:55:31.567Z,28.43
2022-08-03T22:57:58.969Z,28.33
2022-08-03T23:00:26.389Z,28.45
2022-08-03T23:02:54.139Z,28.27
2022-08-03T23:06:01.979Z,28.47
2022-08-03T23:08:11.713Z,28.81
2022-08-03T23:10:42.600Z,28.93
2022-08-03T23:13:15.919Z,29.04
2022-08-03T23:15:45.465Z,28.90
2022-08-03T23:18:15.226Z,28.56
2022-08-03T23:20:42.609Z,28.76
2022-08-03T23:23:14.568Z,28.85
2022-08-03T23:25:49.746Z,28.88
2022-08-03T23:28:19.449Z,29.05
2022-08-03T23:30:49.178Z,29.05
2022-08-03T23:33:16.878Z,29.10
2022-08-03T23:36:27.678Z,29.13
2022-08-03T23:38:44.366Z,29.03
2022-08-03T23:41:16.652Z,28.66
2022-08-03T23:43:51.784Z,28.60
2022-08-03T23:46:24.440Z,28.61
2022-08-03T23:48:56.286Z,28.28
2022-08-03T23:51:31.081Z,28.36
2022-08-03T23:54:02.496Z,28.64
2022-08-03T23:56:39.300Z,28.66
2022-08-03T23:59:30.310Z,28.75
